Погода Мендосана 2 недели

Мендоса, Аргентина

05 - 18 декабря
  • 05декабря
    Сегодня
    +23°
    +36°
    Небольшая облачность
    ВремяПогодаТемператураВлажностьДавлениеВетер, м/сВероятность осадков
    00:00Ясно и безоблачно+28°C30 %690 мм1.9 м/с5 %
    03:00Ясно и безоблачно+25°C35 %688 мм1.4 м/с5 %
    06:00Ясно и безоблачно+23°C38 %687 мм2.1 м/с5 %
    09:00Облачно с прояснениями+28°C28 %689 мм3.4 м/с5 %
    12:00Ясно и безоблачно+33°C22 %689 мм5.3 м/с5 %
    15:00Небольшая облачность+36°C14 %687 мм5.5 м/с12 %
    18:00Практически безоблачно+32°C12 %685 мм3.3 м/с15 %
    21:00Ясно и безоблачно+31°C17 %687 мм1.7 м/с6 %
  • 06декабря
    Вторник
    +23°
    +35°
    Практически безоблачно
    ВремяПогодаТемператураВлажностьДавлениеВетер, м/сВероятность осадков
    00:00Практически безоблачно+27°C23 %687 мм2.1 м/с4 %
    03:00Ясно и безоблачно+26°C22 %687 мм4.9 м/с6 %
    06:00Ясно и безоблачно+24°C18 %690 мм5.9 м/с10 %
    09:00Ясно и безоблачно+26°C17 %693 мм7.6 м/с2 %
    12:00Ясно и безоблачно+30°C17 %693 мм6.3 м/с5 %
    15:00Практически безоблачно+32°C15 %691 мм4.2 м/с2 %
    18:00Ясно и безоблачно+34°C14 %690 мм3.8 м/с2 %
    21:00Ясно и безоблачно+31°C15 %690 мм1.7 м/с4 %
  • 07декабря
    Среда
    +22°
    +40°
    Ясно и безоблачно
    ВремяПогодаТемператураВлажностьДавлениеВетер, м/сВероятность осадков
    00:00Ясно и безоблачно+28°C21 %690 мм1.8 м/с3 %
    03:00Ясно и безоблачно+25°C22 %688 мм2.3 м/с8 %
    06:00Ясно и безоблачно+24°C24 %688 мм2.6 м/с6 %
    09:00Ясно и безоблачно+29°C17 %690 мм3.3 м/с5 %
    12:00Ясно и безоблачно+33°C16 %689 мм4.5 м/с5 %
    15:00Ясно и безоблачно+37°C12 %687 мм3.3 м/с5 %
    18:00Ясно и безоблачно+39°C10 %686 мм3.5 м/с5 %
    21:00Ясно и безоблачно+35°C12 %686 мм1.7 м/с5 %
  • 08декабря
    Четверг
    +24°
    +37°
    Ясно и безоблачно
    ВремяПогодаТемператураВлажностьДавлениеВетер, м/сВероятность осадков
    00:00Ясно и безоблачно+30°C8 %686 мм1.6 м/с3 %
    03:00Ясно и безоблачно+28°C10 %688 мм1.9 м/с5 %
    06:00Ясно и безоблачно+23°C11 %688 мм3.5 м/с5 %
    09:00Ясно и безоблачно+28°C10 %689 мм4.9 м/с5 %
    12:00Ясно и безоблачно+32°C9 %689 мм5.4 м/с5 %
    15:00Ясно и безоблачно+35°C8 %687 мм4.0 м/с5 %
    18:00Ясно и безоблачно+37°C8 %685 мм3.1 м/с5 %
    21:00Ясно и безоблачно+33°C9 %685 мм2.2 м/с5 %
  • 09декабря
    Пятница
    +23°
    +38°
    Ясно и безоблачно
    ВремяПогодаТемператураВлажностьДавлениеВетер, м/сВероятность осадков
    00:00Ясно и безоблачно+29°C14 %685 мм1.8 м/с5 %
    03:00Ясно и безоблачно+27°C15 %684 мм2.2 м/с3 %
    06:00Ясно и безоблачно+24°C17 %685 мм3.1 м/с8 %
    09:00Ясно и безоблачно+29°C16 %688 мм6.1 м/с7 %
    12:00Ясно и безоблачно+34°C16 %688 мм6.2 м/с5 %
    15:00Ясно и безоблачно+37°C13 %687 мм4.9 м/с5 %
    18:00Ясно и безоблачно+37°C13 %686 мм5.4 м/с5 %
    21:00Ясно и безоблачно+34°C17 %688 мм3.8 м/с8 %
Мы используем cookies
Соглашаюсь